Time;durP1;ratioP1;P1;durP2;ratioP2;P2;SDS_P1;SDS_P2;PMS_P1;PMS_P2;Temp;Humidity;BMP_temperature;BMP_pressure;BME280_temperature;BME280_humidity;BME280_pressure;Samples;Min_cycle;Max_cycle;Signal;HPM_P1;HPM_P2
2024/02/15 00:02:15;;;;;;;1.20;0.80;;;16.00;94.30;;;;;;5012806;28;20026;-45
2024/02/15 00:04:42;;;;;;;1.27;0.77;;;16.00;94.50;;;;;;5012746;28;20515;-42
2024/02/15 00:07:08;;;;;;;1.27;0.88;;;15.90;94.60;;;;;;5012799;28;20536;-43
2024/02/15 00:09:34;;;;;;;1.35;0.80;;;15.80;94.70;;;;;;5013026;28;20562;-44
2024/02/15 00:11:59;;;;;;;1.20;0.88;;;15.70;94.80;;;;;;5013241;28;20025;-42
2024/02/15 00:14:27;;;;;;;1.77;0.80;;;15.70;94.90;;;;;;5012812;28;20022;-44
2024/02/15 00:16:53;;;;;;;1.20;1.00;;;15.60;95.00;;;;;;5012390;28;20018;-44
2024/02/15 00:19:18;;;;;;;1.08;0.80;;;15.50;95.10;;;;;;5012223;28;20428;-44
2024/02/15 00:21:44;;;;;;;0.90;0.70;;;15.40;95.20;;;;;;5012638;28;20100;-44
2024/02/15 00:24:10;;;;;;;1.20;0.80;;;15.40;95.30;;;;;;5012154;28;20419;-44
2024/02/15 00:26:36;;;;;;;0.93;0.68;;;15.30;95.40;;;;;;5012178;28;20026;-44
2024/02/15 00:29:01;;;;;;;1.50;1.10;;;15.30;95.50;;;;;;5012550;28;20021;-45
2024/02/15 00:31:27;;;;;;;1.35;0.90;;;15.20;95.60;;;;;;5012323;28;20361;-44
2024/02/15 00:33:53;;;;;;;1.33;0.80;;;15.10;95.70;;;;;;5012677;28;20088;-42
2024/02/15 00:36:19;;;;;;;1.45;0.82;;;15.00;95.80;;;;;;5012026;28;20029;-45
2024/02/15 00:38:45;;;;;;;1.63;0.80;;;15.00;95.90;;;;;;5011916;28;20026;-45
2024/02/15 00:41:10;;;;;;;1.70;1.00;;;14.90;96.00;;;;;;5012095;28;20476;-44
2024/02/15 00:43:36;;;;;;;1.15;0.70;;;14.80;96.00;;;;;;5012472;28;20105;-44
2024/02/15 00:46:02;;;;;;;1.67;1.00;;;14.80;96.10;;;;;;5012228;28;20492;-44
2024/02/15 00:48:29;;;;;;;0.95;0.70;;;14.70;96.20;;;;;;5011599;28;20022;-43
2024/02/15 00:50:55;;;;;;;1.58;0.85;;;14.70;96.30;;;;;;5012036;28;20030;-42
2024/02/15 00:53:21;;;;;;;1.42;0.80;;;14.60;96.40;;;;;;5012169;28;20033;-44
2024/02/15 00:55:47;;;;;;;0.70;0.60;;;14.50;96.50;;;;;;5011939;28;20037;-44
2024/02/15 00:58:12;;;;;;;1.45;0.88;;;14.50;96.60;;;;;;5012035;28;20018;-44
2024/02/15 01:00:38;;;;;;;1.40;0.90;;;14.40;96.70;;;;;;5011670;28;20026;-44
2024/02/15 01:03:04;;;;;;;1.05;0.80;;;14.40;96.70;;;;;;5011752;28;20022;-44
2024/02/15 01:05:30;;;;;;;1.10;0.85;;;14.30;96.80;;;;;;5011807;28;20049;-44
2024/02/15 01:07:56;;;;;;;0.88;0.70;;;14.30;96.90;;;;;;5011567;28;20101;-42
2024/02/15 01:10:23;;;;;;;1.13;0.90;;;14.20;97.00;;;;;;5011815;28;20026;-43
2024/02/15 01:12:49;;;;;;;0.90;0.70;;;14.20;97.10;;;;;;5012177;28;20086;-44
2024/02/15 01:15:19;;;;;;;1.20;0.80;;;14.10;97.20;;;;;;5011723;28;20034;-44
2024/02/15 01:17:45;;;;;;;1.02;0.82;;;14.10;97.30;;;;;;5010504;28;20037;-44
2024/02/15 01:20:11;;;;;;;1.33;0.80;;;14.00;97.30;;;;;;5011768;28;20030;-44
2024/02/15 01:22:37;;;;;;;1.05;0.73;;;14.00;97.30;;;;;;5010166;28;20125;-44
2024/02/15 01:25:03;;;;;;;2.05;0.80;;;13.90;97.40;;;;;;5011114;28;20117;-43
2024/02/15 01:27:30;;;;;;;1.20;0.82;;;13.90;97.50;;;;;;5011295;28;20026;-45
2024/02/15 01:29:56;;;;;;;1.23;0.80;;;13.90;97.60;;;;;;5011555;28;20022;-44
2024/02/15 01:32:22;;;;;;;1.13;0.80;;;13.80;97.60;;;;;;5011381;28;20109;-41
2024/02/15 01:34:47;;;;;;;1.05;0.80;;;13.80;97.70;;;;;;5011153;28;20112;-44
2024/02/15 01:37:13;;;;;;;1.20;1.00;;;13.80;97.80;;;;;;5011738;28;20105;-45
2024/02/15 01:39:40;;;;;;;1.80;0.90;;;13.70;97.80;;;;;;5012323;28;20440;-43
2024/02/15 01:42:06;;;;;;;1.35;0.95;;;13.70;97.90;;;;;;5011830;28;20484;-43
2024/02/15 01:44:31;;;;;;;1.40;0.80;;;13.60;98.00;;;;;;5011006;28;20480;-44
2024/02/15 01:46:58;;;;;;;1.45;0.80;;;13.60;98.00;;;;;;5011261;28;20033;-45
2024/02/15 01:49:26;;;;;;;1.27;0.80;;;13.60;98.10;;;;;;5011795;28;20151;-44
2024/02/15 01:51:54;;;;;;;1.65;0.80;;;13.50;98.10;;;;;;5012727;28;20037;-44
2024/02/15 01:54:20;;;;;;;1.40;1.10;;;13.50;98.50;;;;;;5011975;28;20026;-45
2024/02/15 01:56:45;;;;;;;2.05;1.00;;;13.50;98.20;;;;;;5011229;28;20519;-45
2024/02/15 01:59:14;;;;;;;1.10;0.80;;;13.40;98.30;;;;;;5011191;28;20030;-44
2024/02/15 02:01:41;;;;;;;1.60;0.90;;;13.40;98.30;;;;;;5014037;28;20025;-44
2024/02/15 02:04:08;;;;;;;1.20;0.90;;;13.40;98.40;;;;;;5015213;28;20041;-44
2024/02/15 02:06:34;;;;;;;1.23;0.75;;;13.40;98.50;;;;;;5015393;28;20156;-44
2024/02/15 02:09:02;;;;;;;1.20;0.80;;;13.30;98.50;;;;;;5015098;28;20488;-44
2024/02/15 02:11:29;;;;;;;1.20;0.80;;;13.30;98.50;;;;;;5015090;28;20144;-44
2024/02/15 02:13:55;;;;;;;1.35;0.82;;;13.30;98.60;;;;;;5015019;28;20053;-44
2024/02/15 02:16:31;;;;;;;1.60;0.75;;;13.20;98.60;;;;;;5015146;28;20104;-44
2024/02/15 02:18:57;;;;;;;1.17;0.80;;;13.20;98.70;;;;;;5014719;28;20068;-45
2024/02/15 02:21:27;;;;;;;1.67;0.80;;;13.20;99.00;;;;;;5014639;28;20038;-45
2024/02/15 02:23:57;;;;;;;1.58;0.85;;;13.10;98.80;;;;;;5014503;28;20021;-44
2024/02/15 02:26:24;;;;;;;1.25;0.95;;;13.10;98.80;;;;;;5014700;28;20492;-45
2024/02/15 02:28:53;;;;;;;1.40;0.90;;;13.10;98.90;;;;;;5014289;28;20026;-44
2024/02/15 02:31:19;;;;;;;1.60;0.98;;;13.10;99.20;;;;;;5014447;28;20419;-44
2024/02/15 02:33:53;;;;;;;1.02;0.77;;;13.10;99.00;;;;;;5014325;28;20024;-44
2024/02/15 02:36:19;;;;;;;1.20;0.77;;;13.00;99.00;;;;;;5014228;28;20396;-44
2024/02/15 02:38:45;;;;;;;1.67;0.98;;;13.00;99.00;;;;;;5014518;28;20034;-44
2024/02/15 02:41:14;;;;;;;1.42;0.82;;;13.00;99.00;;;;;;5014382;28;20061;-44
2024/02/15 02:43:40;;;;;;;1.08;0.80;;;12.90;99.10;;;;;;5014211;28;20074;-45
2024/02/15 02:46:06;;;;;;;1.55;0.85;;;12.90;99.10;;;;;;5013954;28;20022;-43
2024/02/15 02:48:32;;;;;;;1.45;0.75;;;12.90;99.50;;;;;;5014170;28;20018;-45
2024/02/15 02:50:58;;;;;;;0.93;0.75;;;12.80;99.20;;;;;;5014176;28;20044;-43
2024/02/15 02:53:24;;;;;;;1.08;0.70;;;12.90;99.20;;;;;;5014149;28;20026;-44
2024/02/15 02:55:51;;;;;;;0.90;0.70;;;12.80;99.20;;;;;;5014569;28;20382;-44
2024/02/15 02:58:16;;;;;;;1.73;1.02;;;12.80;99.30;;;;;;5014834;28;20269;-43
2024/02/15 03:00:42;;;;;;;1.60;0.93;;;12.80;99.30;;;;;;5014103;28;20373;-44
2024/02/15 03:03:09;;;;;;;1.23;0.90;;;12.80;99.70;;;;;;5014572;28;20369;-44
2024/02/15 03:05:35;;;;;;;1.27;0.80;;;12.80;99.40;;;;;;5013646;28;20065;-44
2024/02/15 03:08:00;;;;;;;1.42;0.70;;;12.70;99.40;;;;;;5014214;28;20095;-44
2024/02/15 03:10:26;;;;;;;1.33;0.73;;;12.80;99.50;;;;;;5013628;28;20026;-44
2024/02/15 03:12:52;;;;;;;0.88;0.60;;;12.70;99.50;;;;;;5013785;28;20030;-41
2024/02/15 03:15:18;;;;;;;1.10;0.60;;;12.70;99.50;;;;;;5013739;28;20096;-44
2024/02/15 03:17:46;;;;;;;1.25;0.80;;;12.70;99.60;;;;;;5013584;28;20407;-44
2024/02/15 03:20:21;;;;;;;1.50;0.82;;;12.70;99.60;;;;;;5012150;28;20029;-44
2024/02/15 03:22:54;;;;;;;1.60;0.70;;;12.60;99.60;;;;;;5013680;28;20156;-44
2024/02/15 03:25:19;;;;;;;2.13;0.98;;;12.60;99.60;;;;;;5013154;28;20100;-44
2024/02/15 03:27:45;;;;;;;2.75;0.90;;;12.60;99.70;;;;;;5013325;28;20025;-44
2024/02/15 03:30:11;;;;;;;1.13;0.82;;;12.60;99.70;;;;;;5013248;28;20022;-45
2024/02/15 03:32:37;;;;;;;1.23;0.70;;;12.60;99.70;;;;;;5013447;28;20033;-41
2024/02/15 03:35:03;;;;;;;1.52;1.00;;;12.50;99.70;;;;;;5013079;28;20025;-44
2024/02/15 03:37:29;;;;;;;1.67;0.75;;;12.60;99.80;;;;;;5013092;28;20049;-44
2024/02/15 03:39:55;;;;;;;1.30;0.65;;;12.50;99.80;;;;;;5013436;28;20127;-43
2024/02/15 03:42:21;;;;;;;1.38;0.80;;;12.50;99.80;;;;;;5012690;28;20042;-44
2024/02/15 03:44:47;;;;;;;1.95;0.90;;;12.50;99.80;;;;;;5013010;28;20109;-44
2024/02/15 03:47:14;;;;;;;1.50;0.90;;;12.50;99.80;;;;;;5013456;28;20044;-44
2024/02/15 03:49:42;;;;;;;1.40;0.75;;;12.50;99.90;;;;;;5013488;28;20423;-44
2024/02/15 03:52:10;;;;;;;1.45;0.70;;;12.50;99.90;;;;;;5013191;28;20368;-44
2024/02/15 03:54:36;;;;;;;4.13;0.90;;;12.40;99.90;;;;;;5013214;28;20022;-44
2024/02/15 03:57:02;;;;;;;1.80;0.98;;;12.40;99.90;;;;;;5013193;28;20022;-44
2024/02/15 03:59:27;;;;;;;1.40;0.80;;;12.40;99.90;;;;;;5012735;28;20499;-42
2024/02/15 04:01:54;;;;;;;1.75;0.80;;;12.40;99.90;;;;;;5012908;28;20025;-45
2024/02/15 04:04:21;;;;;;;1.33;0.80;;;12.40;99.90;;;;;;5012590;28;20054;-43
2024/02/15 04:06:51;;;;;;;1.23;0.80;;;12.40;99.90;;;;;;5012893;28;20452;-44
2024/02/15 04:09:17;;;;;;;2.05;0.90;;;12.40;99.90;;;;;;5013164;28;20025;-44
2024/02/15 04:11:57;;;;;;;1.58;0.80;;;12.40;99.90;;;;;;5012593;28;20024;-44
2024/02/15 04:14:23;;;;;;;1.63;0.80;;;12.40;99.90;;;;;;5012816;28;20025;-43
2024/02/15 04:16:48;;;;;;;1.55;0.95;;;12.40;99.90;;;;;;5012738;28;20091;-44
2024/02/15 04:19:15;;;;;;;2.13;0.85;;;12.30;99.90;;;;;;5012877;28;20261;-44
2024/02/15 04:21:43;;;;;;;1.58;0.90;;;12.30;99.90;;;;;;5012810;28;20045;-44
2024/02/15 04:24:09;;;;;;;2.67;1.10;;;12.30;99.90;;;;;;5012076;28;20104;-44
2024/02/15 04:26:37;;;;;;;1.17;0.68;;;12.30;99.90;;;;;;5012606;28;20085;-44
2024/02/15 04:29:03;;;;;;;0.90;0.60;;;12.30;99.90;;;;;;5012837;28;20018;-43
2024/02/15 04:31:28;;;;;;;1.23;0.85;;;12.30;99.90;;;;;;5012563;28;20026;-44
2024/02/15 04:33:54;;;;;;;1.80;1.02;;;12.30;99.90;;;;;;5012037;28;20072;-44
2024/02/15 04:36:23;;;;;;;1.52;0.80;;;12.20;99.90;;;;;;5012117;28;20097;-44
2024/02/15 04:38:52;;;;;;;1.33;0.80;;;12.20;99.90;;;;;;5011935;28;20503;-44
2024/02/15 04:41:24;;;;;;;1.50;0.70;;;12.20;99.90;;;;;;5012079;28;20034;-45
2024/02/15 04:43:54;;;;;;;1.65;0.68;;;12.20;99.90;;;;;;5011997;28;20033;-44
2024/02/15 04:46:22;;;;;;;0.98;0.70;;;12.20;99.90;;;;;;5011819;28;20030;-45
2024/02/15 04:48:50;;;;;;;1.52;0.73;;;12.20;99.90;;;;;;5011692;28;20033;-43
2024/02/15 04:51:16;;;;;;;1.02;0.73;;;12.20;99.90;;;;;;5011975;28;20092;-44
2024/02/15 04:53:43;;;;;;;2.90;0.90;;;12.20;99.90;;;;;;5011951;28;20017;-44
2024/02/15 04:56:13;;;;;;;4.45;1.25;;;12.20;99.90;;;;;;5011792;28;20412;-44
2024/02/15 04:58:46;;;;;;;1.92;0.82;;;12.10;99.90;;;;;;5011718;28;20056;-45
2024/02/15 05:01:17;;;;;;;1.13;0.60;;;12.10;99.90;;;;;;5011666;28;20033;-44
2024/02/15 05:03:44;;;;;;;1.25;0.60;;;12.10;99.90;;;;;;5012141;28;20404;-45
2024/02/15 05:06:12;;;;;;;1.20;0.80;;;12.10;99.90;;;;;;5011694;28;20092;-40
2024/02/15 05:08:42;;;;;;;0.90;0.70;;;12.10;99.90;;;;;;5011897;28;20399;-44
2024/02/15 05:11:17;;;;;;;2.40;0.70;;;12.10;99.90;;;;;;5011740;28;20291;-45
2024/02/15 05:13:44;;;;;;;1.30;0.82;;;12.10;99.90;;;;;;5012218;28;20026;-43
2024/02/15 05:16:10;;;;;;;1.48;0.82;;;12.10;99.90;;;;;;5012085;28;20037;-44
2024/02/15 05:18:37;;;;;;;3.33;0.73;;;12.10;99.90;;;;;;5012369;28;20025;-44
2024/02/15 05:21:04;;;;;;;1.30;0.80;;;12.10;99.90;;;;;;5011734;28;20526;-44
2024/02/15 05:23:30;;;;;;;1.95;1.00;;;12.00;99.90;;;;;;5011580;28;20049;-44
2024/02/15 05:25:56;;;;;;;1.42;0.90;;;12.00;99.90;;;;;;5011358;28;20033;-44
2024/02/15 05:28:26;;;;;;;1.10;0.80;;;12.00;99.90;;;;;;5011325;28;20022;-44
2024/02/15 05:31:19;;;;;;;1.95;0.93;;;12.00;99.90;;;;;;5011885;28;20527;-44
2024/02/15 05:33:47;;;;;;;1.90;0.95;;;12.00;99.90;;;;;;5011629;28;20052;-44
2024/02/15 05:36:20;;;;;;;1.25;0.88;;;12.00;99.90;;;;;;5013959;28;20022;-44
2024/02/15 05:38:51;;;;;;;1.57;0.70;;;12.00;99.90;;;;;;5016355;28;20029;-42
2024/02/15 05:41:16;;;;;;;1.38;0.80;;;12.00;99.90;;;;;;5015545;28;20030;-44
2024/02/15 05:43:42;;;;;;;1.95;0.90;;;12.00;99.90;;;;;;5015879;28;20358;-42
2024/02/15 05:46:09;;;;;;;2.25;1.10;;;12.00;99.90;;;;;;5015572;28;20088;-45
2024/02/15 05:48:36;;;;;;;1.50;0.90;;;12.00;99.90;;;;;;5015890;28;20025;-43
2024/02/15 05:51:08;;;;;;;2.15;1.02;;;12.00;99.90;;;;;;5015600;28;20033;-43
2024/02/15 05:53:35;;;;;;;1.17;0.77;;;12.00;99.90;;;;;;5015473;28;20084;-44
2024/02/15 05:56:06;;;;;;;1.30;0.77;;;11.90;99.90;;;;;;5015557;28;20484;-44
2024/02/15 05:58:32;;;;;;;1.30;0.88;;;11.90;99.90;;;;;;5015691;28;20061;-45
2024/02/15 06:01:01;;;;;;;1.38;0.85;;;12.00;99.90;;;;;;5014887;28;20396;-44
2024/02/15 06:03:33;;;;;;;1.02;0.77;;;11.90;99.90;;;;;;5014875;28;20480;-44
2024/02/15 06:05:59;;;;;;;2.40;1.08;;;12.00;99.90;;;;;;5014793;28;20084;-43
2024/02/15 06:08:31;;;;;;;1.30;1.00;;;12.00;99.90;;;;;;5015146;28;20022;-40
2024/02/15 06:10:57;;;;;;;2.45;1.00;;;11.90;99.90;;;;;;5014792;28;20357;-45
2024/02/15 06:13:23;;;;;;;1.33;0.82;;;11.90;99.90;;;;;;5014940;28;20101;-44
2024/02/15 06:15:52;;;;;;;2.00;1.05;;;11.90;99.90;;;;;;5015121;28;20113;-43
2024/02/15 06:18:33;;;;;;;1.83;0.73;;;11.90;99.90;;;;;;5014563;28;20018;-43
2024/02/15 06:21:00;;;;;;;2.05;0.90;;;11.90;99.90;;;;;;5014560;28;20113;-44
2024/02/15 06:23:27;;;;;;;1.67;1.08;;;11.90;99.90;;;;;;5015378;28;20053;-42
2024/02/15 06:25:56;;;;;;;1.33;0.85;;;11.90;99.90;;;;;;5014672;28;20060;-40
2024/02/15 06:39:45;;;;;;;1.52;0.80;;;11.90;99.90;;;;;;5015298;28;20048;-44
2024/02/15 06:42:19;;;;;;;1.85;1.02;;;11.90;99.90;;;;;;5014549;28;20029;-44
2024/02/15 06:44:46;;;;;;;1.65;1.20;;;11.90;99.90;;;;;;5014014;28;20038;-44
2024/02/15 06:47:12;;;;;;;2.05;1.00;;;11.90;99.90;;;;;;5013905;28;20049;-44
2024/02/15 06:49:41;;;;;;;1.83;1.17;;;11.90;99.90;;;;;;5014100;28;20386;-41
2024/02/15 06:52:11;;;;;;;1.52;0.90;;;11.90;99.90;;;;;;5014632;28;20017;-44
2024/02/15 06:54:40;;;;;;;1.67;1.00;;;11.90;99.90;;;;;;5014399;28;20080;-43
2024/02/15 06:57:06;;;;;;;2.25;1.20;;;11.90;99.90;;;;;;5015026;28;20080;-44
2024/02/15 06:59:32;;;;;;;2.58;1.13;;;11.90;99.90;;;;;;5014690;28;20098;-41
2024/02/15 07:01:59;;;;;;;2.75;1.38;;;12.00;99.90;;;;;;5014422;28;20567;-40
2024/02/15 07:04:28;;;;;;;1.60;0.98;;;12.00;99.90;;;;;;5014273;28;20366;-44
2024/02/15 07:06:57;;;;;;;1.25;0.90;;;12.10;99.90;;;;;;5014551;28;20037;-44
2024/02/15 07:09:24;;;;;;;1.98;1.13;;;12.10;99.90;;;;;;5014768;28;20475;-44
2024/02/15 07:11:50;;;;;;;1.48;1.02;;;12.10;99.90;;;;;;5013597;28;20029;-44
2024/02/15 07:14:16;;;;;;;1.58;1.00;;;12.20;99.90;;;;;;5013598;28;20026;-44
2024/02/15 07:16:50;;;;;;;1.65;1.00;;;12.30;99.90;;;;;;5014246;28;20030;-44
2024/02/15 07:19:16;;;;;;;;;;;12.30;99.90;;;;;;5014968;28;20076;-44
2024/02/15 07:21:42;;;;;;;1.27;0.82;;;12.40;99.90;;;;;;5014960;28;20329;-43
2024/02/15 07:24:08;;;;;;;3.55;1.08;;;12.40;99.90;;;;;;5013377;28;20018;-44
2024/02/15 07:26:35;;;;;;;1.35;0.90;;;12.50;99.90;;;;;;5013099;28;20476;-44
2024/02/15 07:29:01;;;;;;;1.65;1.10;;;12.60;99.90;;;;;;5013474;28;20014;-44
2024/02/15 07:31:29;;;;;;;1.55;0.88;;;12.60;99.90;;;;;;5014322;28;20029;-44
2024/02/15 07:33:55;;;;;;;1.23;0.80;;;12.70;99.90;;;;;;5013623;28;20040;-41
2024/02/15 07:36:21;;;;;;;2.15;1.08;;;12.80;99.90;;;;;;5013141;28;20038;-43
2024/02/15 07:38:48;;;;;;;1.30;0.80;;;12.80;99.90;;;;;;5013048;28;20030;-44
2024/02/15 07:41:15;;;;;;;1.55;0.88;;;12.90;99.90;;;;;;5012972;28;20503;-44
2024/02/15 07:43:41;;;;;;;1.10;0.85;;;13.00;99.90;;;;;;5013206;28;20452;-41
2024/02/15 07:46:07;;;;;;;1.70;1.00;;;13.10;99.90;;;;;;5013037;28;20076;-44
2024/02/15 07:48:33;;;;;;;1.55;0.80;;;13.10;99.90;;;;;;5012949;28;20022;-44
2024/02/15 07:50:58;;;;;;;1.88;0.90;;;13.20;99.90;;;;;;5012843;28;20056;-43
2024/02/15 07:53:24;;;;;;;0.88;0.70;;;13.30;99.90;;;;;;5012968;28;20073;-42
2024/02/15 07:55:50;;;;;;;1.52;0.90;;;13.40;99.90;;;;;;5013721;28;20026;-44
2024/02/15 07:58:18;;;;;;;1.30;0.77;;;13.40;99.80;;;;;;5011971;28;20033;-44
2024/02/15 08:00:45;;;;;;;1.75;0.90;;;13.50;99.70;;;;;;5012772;28;20029;-42
2024/02/15 08:03:11;;;;;;;1.63;0.80;;;13.60;99.60;;;;;;5012818;28;20026;-43
2024/02/15 08:05:37;;;;;;;1.67;0.82;;;13.60;99.50;;;;;;5012545;28;20443;-42
2024/02/15 08:08:03;;;;;;;1.10;0.82;;;13.70;99.40;;;;;;5013349;28;20044;-44
2024/02/15 08:10:29;;;;;;;1.23;0.82;;;13.80;99.30;;;;;;5012941;28;20137;-44
2024/02/15 08:12:57;;;;;;;1.23;0.65;;;13.80;99.20;;;;;;5013380;28;20038;-44
2024/02/15 08:15:24;;;;;;;1.15;0.88;;;13.90;99.10;;;;;;5013471;28;20108;-43
2024/02/15 08:17:50;;;;;;;1.55;0.98;;;14.00;99.00;;;;;;5013676;28;20802;-44
2024/02/15 08:20:21;;;;;;;1.70;0.73;;;14.10;98.90;;;;;;5013721;28;20109;-44
2024/02/15 08:22:47;;;;;;;1.52;0.90;;;14.20;98.80;;;;;;5012753;28;20109;-42
2024/02/15 08:25:15;;;;;;;2.33;0.98;;;14.20;98.70;;;;;;5013281;28;20030;-44
2024/02/15 08:27:44;;;;;;;1.08;0.80;;;14.30;98.60;;;;;;5012353;28;20171;-44
2024/02/15 08:30:12;;;;;;;1.00;0.77;;;14.40;98.50;;;;;;5012873;28;20054;-44
2024/02/15 08:32:45;;;;;;;1.17;0.80;;;14.50;98.30;;;;;;5013109;28;20026;-45
2024/02/15 08:35:12;;;;;;;0.98;0.88;;;14.50;98.20;;;;;;5014044;28;20332;-43
2024/02/15 08:37:39;;;;;;;1.30;0.80;;;14.60;98.10;;;;;;5012337;28;20034;-44
2024/02/15 08:40:18;;;;;;;1.48;0.90;;;14.60;98.00;;;;;;5013391;28;20447;-44
2024/02/15 08:42:45;;;;;;;2.00;1.17;;;14.70;97.90;;;;;;5014473;28;20053;-44
2024/02/15 08:45:12;;;;;;;1.60;1.00;;;14.80;97.80;;;;;;5014753;28;20045;-44
2024/02/15 08:47:42;;;;;;;1.65;0.98;;;14.80;97.70;;;;;;5013683;28;20014;-45
2024/02/15 08:50:09;;;;;;;2.15;1.00;;;14.90;97.60;;;;;;5012285;28;20029;-44
2024/02/15 08:52:39;;;;;;;2.55;0.70;;;15.00;97.50;;;;;;5013393;28;20079;-42
2024/02/15 08:55:07;;;;;;;0.80;0.70;;;15.00;97.30;;;;;;5012100;28;20026;-43
2024/02/15 08:57:33;;;;;;;1.52;0.88;;;15.10;97.20;;;;;;5012543;28;20025;-44
2024/02/15 08:59:59;;;;;;;1.35;1.00;;;15.10;97.20;;;;;;5010461;28;20049;-45
2024/02/15 09:02:25;;;;;;;4.05;1.50;;;15.30;97.10;;;;;;5011690;28;20615;-45
2024/02/15 09:04:51;;;;;;;2.00;1.13;;;15.30;97.00;;;;;;5011576;28;20052;-45
2024/02/15 09:07:16;;;;;;;2.13;1.20;;;15.40;97.00;;;;;;5011699;28;20077;-45
2024/02/15 09:09:42;;;;;;;4.72;1.30;;;15.50;96.90;;;;;;5011487;28;20034;-44
2024/02/15 09:12:08;;;;;;;2.80;1.30;;;15.50;96.80;;;;;;5011577;28;20030;-44
2024/02/15 09:14:34;;;;;;;1.48;1.08;;;15.60;96.70;;;;;;5011971;28;20054;-45
2024/02/15 09:17:00;;;;;;;2.72;1.10;;;15.70;96.70;;;;;;5011509;28;20022;-45
2024/02/15 09:19:26;;;;;;;2.42;1.38;;;15.80;96.60;;;;;;5011460;28;20026;-46
2024/02/15 09:21:51;;;;;;;2.30;1.10;;;15.80;96.50;;;;;;5011523;28;20037;-45
2024/02/15 09:24:17;;;;;;;2.38;1.13;;;16.00;96.40;;;;;;5011391;28;20033;-45
2024/02/15 09:26:44;;;;;;;2.45;1.00;;;16.00;96.30;;;;;;5011198;28;20030;-45
2024/02/15 09:29:10;;;;;;;2.80;1.10;;;16.20;96.20;;;;;;5011428;28;20029;-45
2024/02/15 09:31:36;;;;;;;2.35;1.20;;;16.20;96.10;;;;;;5011376;28;20392;-45
2024/02/15 09:34:05;;;;;;;2.78;1.20;;;16.30;96.00;;;;;;5011470;28;20096;-45
2024/02/15 09:36:39;;;;;;;5.28;1.50;;;16.40;95.90;;;;;;5011206;28;20037;-45
2024/02/15 09:39:05;;;;;;;2.72;1.10;;;16.50;95.80;;;;;;5011291;28;20040;-45
2024/02/15 09:41:31;;;;;;;2.45;1.00;;;16.60;96.00;;;;;;5011825;28;20040;-45
2024/02/15 09:43:58;;;;;;;2.22;0.98;;;16.70;95.60;;;;;;5011253;28;20388;-45
2024/02/15 09:46:24;;;;;;;2.17;1.02;;;16.80;95.50;;;;;;5011403;28;20079;-44
2024/02/15 09:48:59;;;;;;;2.28;1.20;;;16.90;95.40;;;;;;5011151;28;20520;-44
2024/02/15 09:51:27;;;;;;;3.05;0.77;;;17.00;95.30;;;;;;5011417;28;20032;-44
2024/02/15 09:53:53;;;;;;;2.03;1.10;;;17.10;95.20;;;;;;5011426;28;20049;-45
2024/02/15 09:56:21;;;;;;;3.13;0.98;;;17.20;95.10;;;;;;5011033;28;20384;-45
2024/02/15 09:58:47;;;;;;;1.10;0.82;;;17.30;95.00;;;;;;5010960;28;20096;-44
2024/02/15 10:01:14;;;;;;;1.75;1.00;;;17.40;94.90;;;;;;5011108;28;20109;-44
2024/02/15 10:03:41;;;;;;;1.42;0.90;;;17.50;94.80;;;;;;5011201;28;20490;-44
2024/02/15 10:06:07;;;;;;;2.50;0.90;;;17.60;94.70;;;;;;5010997;28;20034;-44
2024/02/15 10:08:32;;;;;;;2.17;1.00;;;17.70;94.60;;;;;;5011551;28;20022;-44
2024/02/15 10:11:08;;;;;;;2.08;0.80;;;17.80;94.40;;;;;;5011108;28;20058;-44
2024/02/15 10:13:35;;;;;;;1.67;0.90;;;17.90;94.30;;;;;;5011484;28;20022;-45
2024/02/15 10:16:18;;;;;;;2.08;0.80;;;18.00;94.20;;;;;;5010923;28;20595;-45
2024/02/15 10:18:45;;;;;;;1.67;0.80;;;18.10;94.10;;;;;;5011033;28;20137;-45
2024/02/15 10:21:23;;;;;;;2.08;0.90;;;18.20;94.00;;;;;;5011487;28;20021;-45
2024/02/15 10:24:05;;;;;;;1.90;0.82;;;18.30;93.80;;;;;;5014661;28;20040;-45
2024/02/15 10:26:30;;;;;;;2.00;1.00;;;18.40;93.70;;;;;;5014735;28;20496;-45
2024/02/15 10:29:10;;;;;;;0.80;0.50;;;18.50;93.60;;;;;;5014319;28;20060;-45
2024/02/15 10:31:36;;;;;;;1.40;0.60;;;18.60;93.50;;;;;;5014456;28;20522;-44
2024/02/15 10:34:04;;;;;;;2.65;0.68;;;18.70;93.40;;;;;;5014248;28;20586;-45
2024/02/15 10:36:33;;;;;;;1.58;0.65;;;18.80;93.20;;;;;;5014185;28;20022;-45
2024/02/15 10:39:19;;;;;;;1.00;0.68;;;18.80;93.10;;;;;;5014149;28;20053;-45
2024/02/15 10:41:53;;;;;;;1.45;0.60;;;19.00;93.00;;;;;;5014259;28;20447;-46
2024/02/15 10:44:21;;;;;;;1.42;0.60;;;19.00;92.80;;;;;;5014248;28;20385;-45
2024/02/15 10:46:50;;;;;;;1.73;0.60;;;19.10;92.70;;;;;;5013927;28;20034;-46
2024/02/15 10:49:20;;;;;;;1.02;0.70;;;19.20;92.60;;;;;;5013977;28;20022;-45
2024/02/15 10:51:50;;;;;;;1.38;0.70;;;19.30;92.80;;;;;;5014090;28;20022;-44
2024/02/15 10:54:28;;;;;;;1.90;0.50;;;19.50;92.40;;;;;;5014053;28;20068;-45
2024/02/15 10:56:56;;;;;;;1.42;0.60;;;19.50;92.20;;;;;;5013967;28;20032;-45
2024/02/15 10:59:26;;;;;;;0.80;0.60;;;19.60;92.10;;;;;;5013828;28;20030;-45
2024/02/15 11:01:58;;;;;;;1.67;0.60;;;19.70;92.00;;;;;;5014089;28;20030;-44
2024/02/15 11:04:32;;;;;;;0.98;0.50;;;19.80;91.90;;;;;;5013732;28;20028;-45
2024/02/15 11:06:58;;;;;;;1.35;0.77;;;19.90;91.80;;;;;;5013723;28;20022;-45
2024/02/15 11:09:28;;;;;;;0.95;0.52;;;19.90;91.70;;;;;;5013506;28;20025;-45
2024/02/15 11:11:55;;;;;;;0.90;0.50;;;20.00;91.60;;;;;;5013897;28;20060;-44
2024/02/15 11:14:31;;;;;;;1.02;0.52;;;20.10;91.60;;;;;;5013647;28;20025;-45
2024/02/15 11:17:02;;;;;;;1.27;0.63;;;20.10;91.50;;;;;;5013653;28;20401;-45
2024/02/15 11:19:37;;;;;;;1.90;0.80;;;20.20;91.40;;;;;;5013485;28;20021;-44
2024/02/15 11:22:15;;;;;;;1.35;0.80;;;20.20;91.30;;;;;;5013347;28;20558;-45
2024/02/15 11:24:49;;;;;;;0.70;0.43;;;20.30;91.20;;;;;;5013860;28;20049;-45
2024/02/15 11:27:29;;;;;;;1.17;0.57;;;20.40;91.20;;;;;;5013482;28;20690;-46
2024/02/15 11:30:09;;;;;;;1.02;0.80;;;20.40;91.10;;;;;;5013427;28;20030;-46
2024/02/15 11:32:53;;;;;;;1.00;0.60;;;20.50;91.00;;;;;;5012397;28;20056;-45
2024/02/15 11:35:23;;;;;;;0.90;0.43;;;20.50;90.90;;;;;;5013644;28;20081;-45
2024/02/15 11:40:19;;;;;;;1.20;0.60;;;20.60;90.70;;;;;;5013149;28;20030;-45
2024/02/15 11:42:46;;;;;;;2.05;0.80;;;20.70;90.70;;;;;;5012998;28;20036;-44
2024/02/15 11:45:12;;;;;;;1.67;0.70;;;20.60;90.70;;;;;;5012940;28;20037;-44
2024/02/15 11:47:42;;;;;;;0.95;0.50;;;20.60;90.60;;;;;;5013059;28;20022;-46
2024/02/15 11:50:12;;;;;;;2.85;0.82;;;20.70;90.60;;;;;;5013266;28;20029;-44
2024/02/15 11:52:40;;;;;;;1.23;0.52;;;20.70;90.40;;;;;;5012947;28;20018;-45
2024/02/15 11:55:10;;;;;;;1.48;0.80;;;20.80;90.30;;;;;;5012840;28;20084;-46
2024/02/15 11:57:48;;;;;;;1.45;0.63;;;20.90;90.20;;;;;;5013248;28;20113;-45
2024/02/15 12:19:53;;;;;;;1.13;0.50;;;21.20;89.60;;;;;;5012413;28;20041;-45
2024/02/15 12:22:40;;;;;;;0.73;0.40;;;21.20;89.50;;;;;;5012899;28;20026;-45
2024/02/15 12:25:13;;;;;;;1.17;0.50;;;21.20;89.50;;;;;;5011869;28;20441;-45
2024/02/15 12:27:40;;;;;;;1.40;0.70;;;21.20;89.40;;;;;;5012558;28;20037;-45
2024/02/15 12:30:08;;;;;;;1.02;0.55;;;21.20;90.00;;;;;;5012163;28;20057;-46
2024/02/15 12:32:34;;;;;;;0.68;0.40;;;21.20;89.30;;;;;;5012138;28;20514;-46
2024/02/15 12:35:19;;;;;;;0.88;0.60;;;21.20;89.30;;;;;;5012053;28;20022;-44
2024/02/15 12:38:02;;;;;;;1.00;0.50;;;21.20;90.00;;;;;;5012694;28;20040;-45
2024/02/15 12:40:32;;;;;;;1.00;0.43;;;21.30;89.20;;;;;;5012059;28;20483;-45
2024/02/15 12:42:59;;;;;;;1.45;0.47;;;21.20;89.90;;;;;;5011917;28;20026;-45
2024/02/15 12:45:27;;;;;;;0.50;0.32;;;21.20;89.10;;;;;;5011537;28;20033;-44
2024/02/15 12:47:54;;;;;;;1.60;0.60;;;21.20;89.80;;;;;;5011881;28;20080;-44
2024/02/15 12:50:27;;;;;;;0.80;0.55;;;21.30;89.00;;;;;;5012140;28;20143;-44
2024/02/15 12:52:55;;;;;;;1.02;0.47;;;21.30;89.00;;;;;;5012426;28;20100;-44
2024/02/15 12:55:24;;;;;;;1.20;0.50;;;21.20;88.90;;;;;;5011766;28;20392;-45
2024/02/15 12:57:56;;;;;;;1.10;0.32;;;21.20;88.90;;;;;;5011821;28;20579;-45
2024/02/15 13:00:31;;;;;;;1.08;0.60;;;21.30;88.90;;;;;;5011816;28;20436;-45
2024/02/15 13:02:58;;;;;;;2.25;0.50;;;21.30;88.80;;;;;;5011809;28;20022;-44
2024/02/15 13:05:26;;;;;;;1.55;0.65;;;21.20;88.80;;;;;;5011630;28;20030;-43
2024/02/15 13:07:57;;;;;;;1.05;0.45;;;21.20;88.80;;;;;;5011520;28;20023;-44
2024/02/15 13:10:23;;;;;;;0.88;0.50;;;21.20;88.80;;;;;;5011764;28;20040;-44
2024/02/15 13:12:55;;;;;;;1.33;0.60;;;21.20;88.80;;;;;;5011494;28;20018;-44
2024/02/15 13:15:26;;;;;;;1.35;0.50;;;21.20;88.70;;;;;;5011596;28;20022;-44
2024/02/15 13:17:51;;;;;;;0.57;0.40;;;21.20;88.80;;;;;;5011518;28;20492;-43
2024/02/15 13:20:20;;;;;;;0.60;0.30;;;21.10;88.70;;;;;;5011382;28;20022;-44
2024/02/15 13:22:49;;;;;;;0.60;0.40;;;21.20;88.80;;;;;;5011542;28;20111;-44
2024/02/15 13:25:20;;;;;;;0.70;0.43;;;21.10;88.70;;;;;;5011315;28;20025;-44
2024/02/15 13:27:47;;;;;;;0.50;0.38;;;21.10;88.70;;;;;;5011711;28;20026;-44